Rushville, Illinois
Current Conditions -  °F | °C
As of 7:35 PM on Sunday 23 Nov 2014 (Local Time) from KMQB Reporting Station
Drizzle Drizzle  
Wind Chill: 50°   Ceiling: 300
Heat Index: 50°   Visibility: 1.5mi
Dew Point: 50°   Wind: 5mph
Humidity: 100%   Direction: 180°S
Pressure: 29.27"   Gusts: NA
Location:  40.12°N, 90.56°W
Report Text: KMQB 240135Z AUTO 18004KT 1 1/2SM -DZ OVC003 10/10 A2927 RMK AO2 T01010101
Loading
Personal Weather Stations






























Interactive Weather Map New forecast layout! Learn more

10-Day Weather Forecast

Advertisements
Track Severe Weather on mobile